Time;durP1;ratioP1;P1;durP2;ratioP2;P2;SDS_P1;SDS_P2;PMS_P1;PMS_P2;Temp;Humidity;BMP_temperature;BMP_pressure;BME280_temperature;BME280_humidity;BME280_pressure;Samples;Min_cycle;Max_cycle;Signal;HPM_P1;HPM_P2
2022/09/18 00:03:27;;;;;;;6.43;1.07;;;;;;;13.46;48.69;100367.56;10111523;29;20260;-80
2022/09/18 00:08:51;;;;;;;4.63;1.17;;;;;;;13.42;48.57;100358.97;10120559;29;20258;-80
2022/09/18 00:14:17;;;;;;;3.77;1.60;;;;;;;13.34;48.77;100366.41;10102485;29;20226;-80
2022/09/18 00:19:39;;;;;;;6.50;1.70;;;;;;;12.78;50.59;100364.41;10103065;29;20225;-80
2022/09/18 00:25:01;;;;;;;4.83;1.90;;;;;;;12.63;51.45;100361.09;10095115;29;20230;-80
2022/09/18 00:30:23;;;;;;;9.33;3.03;;;;;;;12.87;50.98;100371.63;10084223;29;20281;-80
2022/09/18 00:35:46;;;;;;;10.10;2.70;;;;;;;13.26;49.82;100356.03;10093105;29;20189;-80
2022/09/18 00:41:12;;;;;;;7.40;2.37;;;;;;;12.73;51.77;100358.97;10092577;29;20495;-80
2022/09/18 00:46:35;;;;;;;4.33;1.80;;;;;;;12.77;51.83;100357.13;10092512;29;20250;-81
2022/09/18 00:51:59;;;;;;;7.13;2.30;;;;;;;13.24;50.58;100361.22;10091476;29;20213;-80
2022/09/18 00:57:26;;;;;;;10.70;2.47;;;;;;;13.53;49.50;100365.00;10095880;29;20221;-80
2022/09/18 01:02:48;;;;;;;3.80;2.30;;;;;;;13.07;50.84;100366.22;10102500;29;20209;-81
2022/09/18 01:08:23;;;;;;;9.10;2.23;;;;;;;13.10;50.38;100366.34;10093354;29;20237;-80
2022/09/18 01:13:58;;;;;;;7.67;2.30;;;;;;;12.90;51.46;100353.13;10077343;29;20218;-80
2022/09/18 01:19:29;;;;;;;4.47;1.97;;;;;;;13.57;49.85;100351.75;10104391;29;20237;-80
2022/09/18 01:25:01;;;;;;;5.87;1.90;;;;;;;13.37;49.86;100348.72;10090893;29;20666;-80
2022/09/18 01:30:23;;;;;;;6.67;2.20;;;;;;;13.55;49.40;100349.25;10076103;29;20281;-80
2022/09/18 01:35:51;;;;;;;6.87;2.30;;;;;;;13.19;50.83;100344.44;10114176;29;20592;-86
2022/09/18 01:41:19;;;;;;;8.43;3.40;;;;;;;12.18;53.11;100365.81;10081680;29;20242;-82
2022/09/18 01:46:43;;;;;;;8.20;2.60;;;;;;;12.65;51.72;100338.91;10086953;29;20202;-87
2022/09/18 01:52:19;;;;;;;10.33;3.23;;;;;;;13.26;50.67;100343.88;10092132;29;20223;-86
2022/09/18 01:57:51;;;;;;;5.53;2.90;;;;;;;13.32;49.88;100340.44;10124644;29;20270;-87
2022/09/18 02:03:18;;;;;;;12.13;3.30;;;;;;;13.41;50.65;100331.03;10101261;29;20354;-88
2022/09/18 02:08:44;;;;;;;10.53;2.87;;;;;;;13.28;50.43;100333.84;10087931;29;20253;-86
2022/09/18 02:14:13;;;;;;;7.97;3.40;;;;;;;13.05;51.11;100343.94;10094575;29;20237;-81
2022/09/18 02:19:48;;;;;;;7.30;2.77;;;;;;;13.30;50.71;100331.47;10088163;29;20194;-81
2022/09/18 02:25:12;;;;;;;12.27;3.70;;;;;;;13.29;50.62;100323.38;10082032;29;20595;-82
2022/09/18 02:30:37;;;;;;;17.30;4.53;;;;;;;12.99;51.75;100331.22;10099115;29;20261;-81
2022/09/18 02:36:23;;;;;;;9.33;3.77;;;;;;;13.51;50.03;100331.34;10089175;29;20687;-81
2022/09/18 02:42:02;;;;;;;14.20;4.83;;;;;;;12.83;51.96;100318.94;10097216;29;20202;-80
2022/09/18 02:47:56;;;;;;;9.50;3.43;;;;;;;13.62;49.90;100315.53;10086173;29;20358;-80
2022/09/18 02:53:31;;;;;;;7.60;4.07;;;;;;;13.02;52.08;100319.19;10108171;29;20603;-80
2022/09/18 02:58:57;;;;;;;7.17;4.47;;;;;;;13.00;51.42;100305.41;10085240;29;20210;-80
2022/09/18 03:04:26;;;;;;;11.30;5.40;;;;;;;13.42;50.81;100304.34;10074023;29;20217;-81
2022/09/18 03:10:00;;;;;;;12.57;6.33;;;;;;;13.31;51.25;100316.13;10086494;29;20222;-81
2022/09/18 03:15:23;;;;;;;11.60;5.20;;;;;;;12.77;52.42;100314.69;10095571;29;20517;-81
2022/09/18 03:20:46;;;;;;;13.23;6.33;;;;;;;13.53;50.44;100308.34;10081094;29;20202;-80
2022/09/18 03:26:08;;;;;;;10.23;6.47;;;;;;;12.96;52.11;100300.78;10078811;29;20281;-81
2022/09/18 03:31:30;;;;;;;11.00;6.90;;;;;;;13.15;51.27;100306.69;10094191;29;20226;-80
2022/09/18 03:36:52;;;;;;;14.77;7.70;;;;;;;12.49;53.92;100318.16;10107566;29;20238;-80
2022/09/18 03:42:14;;;;;;;14.13;8.67;;;;;;;12.87;52.61;100317.06;10096851;29;20595;-80
2022/09/18 03:47:37;;;;;;;12.83;9.50;;;;;;;13.63;51.41;100316.34;10083977;29;20226;-81
2022/09/18 03:52:59;;;;;;;16.83;9.73;;;;;;;13.46;53.04;100327.94;10084423;29;20572;-80
2022/09/18 03:58:40;;;;;;;12.93;10.00;;;;;;;13.64;51.74;100323.66;10108438;29;20278;-81
2022/09/18 04:04:23;;;;;;;12.73;9.30;;;;;;;13.28;52.89;100299.88;10088268;29;20484;-80
2022/09/18 04:09:51;;;;;;;12.67;9.30;;;;;;;13.47;52.50;100307.75;10105291;29;20253;-83
2022/09/18 04:15:14;;;;;;;11.20;10.03;;;;;;;13.19;54.15;100302.00;10097335;29;20288;-81
2022/09/18 04:20:37;;;;;;;12.70;10.27;;;;;;;13.48;52.50;100303.75;10090098;29;20206;-81
2022/09/18 04:26:02;;;;;;;14.50;10.63;;;;;;;13.35;52.87;100305.78;10090264;29;20214;-81
2022/09/18 04:31:28;;;;;;;11.37;8.53;;;;;;;13.21;52.82;100293.97;10098602;29;20247;-81
2022/09/18 04:36:51;;;;;;;13.07;9.23;;;;;;;12.94;54.23;100295.47;10094107;29;20277;-80
2022/09/18 04:42:14;;;;;;;11.70;8.87;;;;;;;13.24;53.73;100298.13;10081438;29;20203;-81
2022/09/18 04:47:39;;;;;;;9.50;8.30;;;;;;;13.00;54.88;100287.59;10114053;29;20206;-81
2022/09/18 04:53:04;;;;;;;11.00;9.47;;;;;;;12.89;54.71;100300.56;10062472;29;20211;-81
2022/09/18 04:58:26;;;;;;;12.80;9.57;;;;;;;12.90;55.03;100305.84;10092965;29;20202;-81
2022/09/18 05:03:48;;;;;;;12.93;9.87;;;;;;;13.66;52.88;100309.97;10086662;29;20209;-82
2022/09/18 05:09:25;;;;;;;11.47;9.83;;;;;;;12.82;55.23;100292.66;10109580;29;20560;-82
2022/09/18 05:14:47;;;;;;;9.13;8.17;;;;;;;12.57;55.48;100288.13;10094966;29;20227;-78
2022/09/18 05:20:10;;;;;;;9.43;7.30;;;;;;;12.80;54.72;100303.47;10082068;29;20209;-80
2022/09/18 05:25:38;;;;;;;10.63;6.63;;;;;;;12.90;54.21;100316.38;10099137;29;20253;-80
2022/09/18 05:31:00;;;;;;;10.47;6.63;;;;;;;12.63;55.10;100312.19;10113680;29;20544;-80
2022/09/18 05:36:22;;;;;;;13.00;5.80;;;;;;;12.88;53.98;100307.41;10095283;29;20305;-80
2022/09/18 05:41:48;;;;;;;9.10;5.60;;;;;;;13.39;53.46;100306.72;10097487;29;20596;-80
2022/09/18 05:47:10;;;;;;;13.23;5.20;;;;;;;13.03;54.14;100312.38;10083800;29;20210;-80
2022/09/18 05:52:34;;;;;;;10.90;5.93;;;;;;;12.80;55.05;100311.13;10107625;29;20218;-80
2022/09/18 05:57:57;;;;;;;8.90;5.23;;;;;;;12.95;54.68;100314.09;10085236;29;20209;-80
2022/09/18 06:03:22;;;;;;;7.27;4.83;;;;;;;13.41;53.66;100314.84;10091482;29;20202;-79
2022/09/18 06:08:47;;;;;;;7.60;3.80;;;;;;;13.03;53.79;100312.38;10114533;29;20316;-80
2022/09/18 06:14:09;;;;;;;12.00;7.80;;;;;;;14.20;49.17;100301.09;10110602;29;20230;-84
2022/09/18 06:19:33;;;;;;;10.00;4.80;;;;;;;13.47;52.84;100307.75;10083020;29;20289;-89
2022/09/18 06:24:55;;;;;;;7.97;5.87;;;;;;;13.26;52.86;100309.91;10110123;29;20292;-88
2022/09/18 06:30:17;;;;;;;9.43;5.53;;;;;;;13.83;52.41;100303.19;10108160;29;20257;-88
2022/09/18 06:35:41;;;;;;;8.90;6.33;;;;;;;14.03;51.56;100297.38;10116975;29;20206;-90
2022/09/18 06:41:14;;;;;;;11.83;7.23;;;;;;;13.52;53.26;100310.34;10103551;29;20608;-90
2022/09/18 06:46:39;;;;;;;9.13;6.80;;;;;;;13.63;53.19;100308.69;10096265;29;20262;-86
2022/09/18 06:52:04;;;;;;;10.27;7.33;;;;;;;13.12;55.49;100324.38;10110529;29;20229;-89
2022/09/18 06:57:30;;;;;;;10.57;7.70;;;;;;;13.48;53.51;100319.91;10115877;29;20675;-90
2022/09/18 07:03:00;;;;;;;10.27;7.13;;;;;;;13.46;53.71;100322.25;10094588;29;20264;-89
2022/09/18 07:08:34;;;;;;;11.07;8.00;;;;;;;13.19;55.15;100332.31;10138686;29;20244;-88
2022/09/18 07:14:10;;;;;;;13.23;8.63;;;;;;;12.88;56.21;100324.38;10106753;29;20289;-88
2022/09/18 07:19:40;;;;;;;10.87;8.37;;;;;;;13.17;55.09;100318.47;10106159;29;20563;-89
2022/09/18 07:25:12;;;;;;;12.13;8.30;;;;;;;13.17;55.40;100315.63;10135787;29;20635;-87
2022/09/18 07:30:36;;;;;;;11.57;8.20;;;;;;;13.74;53.78;100309.84;10092672;29;20253;-87
2022/09/18 07:36:00;;;;;;;12.83;8.30;;;;;;;13.54;55.05;100310.84;10096043;29;20205;-87
2022/09/18 07:41:24;;;;;;;10.67;7.27;;;;;;;13.62;53.63;100303.38;10087350;29;20324;-86
2022/09/18 07:46:47;;;;;;;8.40;6.43;;;;;;;13.71;53.84;100306.88;10094481;29;20252;-89
2022/09/18 07:52:12;;;;;;;8.27;6.13;;;;;;;13.28;55.63;100301.91;10094591;29;20710;-88
2022/09/18 07:57:34;;;;;;;8.93;5.47;;;;;;;13.61;54.46;100302.53;10140403;29;20214;-81
2022/09/18 08:03:14;;;;;;;12.80;6.80;;;;;;;14.28;52.14;100297.28;10090187;29;20281;-81
2022/09/18 08:08:59;;;;;;;7.40;6.33;;;;;;;14.27;52.17;100292.78;10102717;29;20315;-81
2022/09/18 08:14:56;;;;;;;7.17;6.53;;;;;;;14.14;52.89;100305.38;10095260;29;20798;-81
2022/09/18 08:20:37;;;;;;;8.73;5.00;;;;;;;12.95;56.38;100307.63;10101264;29;20230;-81
2022/09/18 08:26:18;;;;;;;6.57;3.30;;;;;;;13.28;55.13;100307.56;10129863;29;20579;-81
2022/09/18 08:31:41;;;;;;;2.97;1.50;;;;;;;13.76;53.54;100306.66;10131010;29;20222;-81
2022/09/18 08:37:03;;;;;;;4.83;1.90;;;;;;;13.78;53.85;100311.97;10112150;29;20262;-81
2022/09/18 08:43:04;;;;;;;3.97;1.57;;;;;;;13.38;54.77;100319.22;10112686;29;20295;-81
2022/09/18 08:48:32;;;;;;;2.47;1.10;;;;;;;13.89;52.66;100313.09;10109751;29;20266;-81
2022/09/18 08:54:06;;;;;;;1.83;0.60;;;;;;;13.00;53.46;100315.88;10119567;29;20535;-80
2022/09/18 08:59:57;;;;;;;2.30;1.07;;;;;;;13.57;53.75;100306.44;10130300;29;20261;-84
2022/09/18 09:05:31;;;;;;;3.10;1.53;;;;;;;13.69;51.99;100312.06;10098725;29;20262;-82
2022/09/18 09:11:02;;;;;;;3.83;1.63;;;;;;;13.99;51.75;100302.13;10115503;29;20248;-81
2022/09/18 09:16:37;;;;;;;3.33;1.57;;;;;;;14.59;52.10;100308.66;10112936;29;20268;-81
2022/09/18 09:22:29;;;;;;;3.50;1.77;;;;;;;14.42;52.67;100292.00;10119202;29;20201;-81
2022/09/18 09:27:59;;;;;;;3.67;1.97;;;;;;;14.59;50.83;100291.63;10128418;29;20281;-81
2022/09/18 09:33:52;;;;;;;5.53;2.70;;;;;;;13.10;56.20;100297.63;10136320;29;20611;-81
2022/09/18 09:39:38;;;;;;;2.67;2.00;;;;;;;13.34;56.16;100292.78;10089558;29;20505;-81
2022/09/18 09:45:14;;;;;;;2.03;1.70;;;;;;;13.88;53.94;100286.78;10101252;29;20272;-81
2022/09/18 09:50:49;;;;;;;2.63;2.17;;;;;;;13.79;54.21;100280.44;10111099;29;20626;-81
2022/09/18 09:56:23;;;;;;;4.33;2.40;;;;;;;13.82;54.76;100291.03;10060187;29;20246;-80
2022/09/18 10:01:58;;;;;;;3.53;2.10;;;;;;;13.59;53.97;100287.09;10113029;29;20484;-80
2022/09/18 10:07:34;;;;;;;4.70;1.53;;;;;;;14.02;54.20;100273.06;10084068;29;20209;-89
2022/09/18 10:13:00;;;;;;;1.87;1.03;;;;;;;13.30;54.67;100289.00;10071636;29;20221;-81
2022/09/18 10:18:30;;;;;;;3.57;1.37;;;;;;;14.47;51.33;100271.88;10079088;29;20209;-85
2022/09/18 10:24:15;;;;;;;3.27;1.43;;;;;;;14.26;53.79;100263.59;10094491;29;20301;-82
2022/09/18 10:29:40;;;;;;;1.73;0.87;;;;;;;13.27;53.99;100264.28;10066729;29;20647;-82
2022/09/18 10:35:25;;;;;;;0.87;0.60;;;;;;;14.03;53.02;100240.69;10097838;29;20209;-86
2022/09/18 10:40:49;;;;;;;2.10;0.70;;;;;;;13.28;52.70;100270.75;10100537;29;20492;-82
2022/09/18 10:46:23;;;;;;;1.40;0.60;;;;;;;14.24;53.90;100246.13;10120263;29;20261;-82
2022/09/18 10:51:47;;;;;;;4.00;0.80;;;;;;;15.07;51.46;100244.28;10082268;29;20298;-82
2022/09/18 10:57:25;;;;;;;2.73;0.83;;;;;;;15.12;51.56;100238.28;10084904;29;20206;-82
2022/09/18 11:03:15;;;;;;;3.17;0.40;;;;;;;14.88;50.83;100236.50;10048449;29;20289;-81
2022/09/18 11:08:43;;;;;;;3.40;1.03;;;;;;;15.07;51.20;100235.75;10081361;29;20246;-84
2022/09/18 11:14:22;;;;;;;1.90;0.53;;;;;;;14.48;53.11;100242.31;10074934;29;20264;-82
2022/09/18 11:19:55;;;;;;;2.43;0.47;;;;;;;14.84;50.93;100244.13;10056029;29;20283;-87
2022/09/18 11:25:27;;;;;;;2.23;0.60;;;;;;;14.91;51.64;100252.81;10070937;29;20655;-86
2022/09/18 11:31:13;;;;;;;5.77;1.30;;;;;;;15.14;50.15;100241.59;10057194;29;20317;-81
2022/09/18 11:36:39;;;;;;;4.47;1.70;;;;;;;14.02;51.45;100241.06;10074917;29;20954;-81
2022/09/18 11:42:15;;;;;;;4.63;1.57;;;;;;;15.03;51.23;100238.50;10070862;29;20325;-80
2022/09/18 11:47:45;;;;;;;2.23;0.80;;;;;;;14.52;52.22;100219.72;10075908;29;20301;-80
2022/09/18 11:53:17;;;;;;;3.80;0.87;;;;;;;14.94;50.12;100228.53;10049010;29;20374;-82
2022/09/18 11:58:55;;;;;;;2.53;0.60;;;;;;;14.79;51.91;100221.69;10068131;29;20245;-78
2022/09/18 12:04:37;;;;;;;1.23;0.50;;;;;;;14.44;52.87;100215.91;10101432;29;20259;-80
2022/09/18 12:10:26;;;;;;;2.33;0.80;;;;;;;14.85;51.80;100213.72;10094341;29;20349;-80
2022/09/18 12:15:54;;;;;;;3.03;0.60;;;;;;;14.41;53.49;100222.28;10066905;29;20650;-79
2022/09/18 12:21:21;;;;;;;1.33;0.50;;;;;;;14.68;50.90;100212.88;10087486;29;20311;-79
2022/09/18 12:27:08;;;;;;;3.70;0.80;;;;;;;13.68;54.15;100222.66;10070362;29;20264;-80
2022/09/18 12:32:55;;;;;;;2.23;1.13;;;;;;;14.61;52.96;100215.53;10073500;29;20351;-81
2022/09/18 12:39:14;;;;;;;4.00;1.30;;;;;;;13.57;55.82;100215.81;10098168;29;20222;-80
2022/09/18 12:44:45;;;;;;;2.90;0.93;;;;;;;14.21;54.04;100195.81;10084620;29;20209;-80
2022/09/18 12:50:38;;;;;;;1.93;0.80;;;;;;;14.12;54.76;100197.19;10092398;29;20686;-81
2022/09/18 12:56:08;;;;;;;3.13;0.97;;;;;;;13.95;54.52;100209.63;10103240;29;20229;-86
2022/09/18 13:01:39;;;;;;;2.67;0.77;;;;;;;13.30;55.62;100214.59;10070474;29;20625;-81
2022/09/18 13:07:05;;;;;;;1.70;0.40;;;;;;;13.88;53.89;100215.94;10063970;29;20275;-80
2022/09/18 13:13:00;;;;;;;2.00;0.63;;;;;;;13.24;55.43;100236.66;10068712;29;20347;-81
2022/09/18 13:18:32;;;;;;;1.47;0.53;;;;;;;14.24;53.35;100217.78;10060817;29;20580;-80
2022/09/18 13:23:54;;;;;;;2.27;0.10;;;;;;;13.43;52.18;100238.03;10090241;29;20270;-79
2022/09/18 13:29:48;;;;;;;2.27;1.37;;;;;;;13.43;52.10;100226.72;10085537;29;20230;-80
2022/09/18 13:35:13;;;;;;;1.40;1.20;;;;;;;13.79;52.93;100206.78;10081547;29;20230;-80
2022/09/18 13:40:37;;;;;;;1.43;0.90;;;;;;;13.54;52.69;100210.91;10084564;29;20245;-80
2022/09/18 13:46:00;;;;;;;2.43;0.50;;;;;;;14.12;51.89;100208.53;10067682;29;20241;-80
2022/09/18 13:51:25;;;;;;;3.07;0.90;;;;;;;13.33;54.77;100213.88;10087791;29;20269;-83
2022/09/18 13:57:09;;;;;;;0.90;0.40;;;;;;;13.38;51.21;100224.97;10081657;29;20233;-80
2022/09/18 14:02:36;;;;;;;4.80;2.80;;;;;;;13.66;51.52;100222.19;10067952;29;20230;-80
2022/09/18 14:08:11;;;;;;;1.40;0.30;;;;;;;12.83;52.56;100228.41;10098076;29;20277;-80
2022/09/18 14:13:37;;;;;;;1.90;0.60;;;;;;;13.81;52.11;100221.38;10072225;29;20273;-80
2022/09/18 14:19:19;;;;;;;3.10;0.70;;;;;;;14.15;51.66;100219.16;10079304;29;20228;-82
2022/09/18 14:24:50;;;;;;;2.37;0.53;;;;;;;13.08;55.66;100215.91;10076957;29;20265;-83
2022/09/18 14:30:18;;;;;;;3.67;0.40;;;;;;;12.67;54.68;100211.31;10084246;29;20261;-81
2022/09/18 14:36:03;;;;;;;1.53;0.40;;;;;;;13.49;52.76;100209.13;10093711;29;20278;-81
2022/09/18 14:41:30;;;;;;;1.17;0.47;;;;;;;13.68;53.10;100216.97;10078928;29;20682;-81
2022/09/18 14:47:02;;;;;;;4.40;0.50;;;;;;;13.33;53.74;100216.72;10083453;29;20317;-81
2022/09/18 14:52:29;;;;;;;1.87;0.40;;;;;;;13.96;51.89;100211.28;10069050;29;20257;-81
2022/09/18 14:57:55;;;;;;;3.00;0.47;;;;;;;13.64;53.25;100210.38;10058520;29;20234;-80
2022/09/18 15:03:21;;;;;;;2.87;0.50;;;;;;;13.91;51.40;100215.22;10065754;29;20238;-79
2022/09/18 15:08:44;;;;;;;1.90;0.40;;;;;;;13.21;52.20;100230.88;10081119;29;20237;-83
2022/09/18 15:14:21;;;;;;;3.13;0.50;;;;;;;13.22;52.83;100224.06;10080407;29;20360;-90
2022/09/18 15:20:05;;;;;;;1.20;0.60;;;;;;;13.12;53.09;100225.34;10077536;29;20257;-79
2022/09/18 15:25:29;;;;;;;1.40;0.43;;;;;;;13.28;52.49;100231.13;10081799;29;20277;-80
2022/09/18 15:30:56;;;;;;;2.03;0.40;;;;;;;13.35;52.12;100226.50;10092319;29;20237;-80
2022/09/18 15:36:32;;;;;;;6.30;1.03;;;;;;;13.19;52.78;100224.75;10086676;29;20275;-82
2022/09/18 15:41:57;;;;;;;2.83;1.30;;;;;;;13.54;51.97;100239.22;10087458;29;20233;-79
2022/09/18 15:47:29;;;;;;;3.60;0.73;;;;;;;12.98;52.65;100244.69;10076835;29;20237;-80
2022/09/18 15:52:52;;;;;;;4.20;0.60;;;;;;;12.92;53.47;100248.91;10085957;29;20253;-80
2022/09/18 15:58:32;;;;;;;3.77;0.97;;;;;;;12.01;54.83;100250.13;10098276;29;20245;-81
2022/09/18 16:04:03;;;;;;;2.10;0.80;;;;;;;12.61;52.98;100264.47;10095164;29;20229;-89
2022/09/18 16:09:40;;;;;;;2.00;0.80;;;;;;;12.17;54.80;100270.91;10083529;29;20281;-86
2022/09/18 16:15:14;;;;;;;2.53;0.70;;;;;;;13.21;52.44;100274.16;10088285;29;20325;-84
2022/09/18 16:21:03;;;;;;;12.57;0.97;;;;;;;12.74;52.23;100278.63;10087902;29;20292;-88
2022/09/18 16:26:34;;;;;;;5.33;0.63;;;;;;;12.61;53.03;100272.94;10103958;29;20256;-80
2022/09/18 16:31:56;;;;;;;1.77;0.40;;;;;;;13.04;51.59;100268.72;10097266;29;20242;-84
2022/09/18 16:37:21;;;;;;;2.43;0.63;;;;;;;12.61;51.55;100269.31;10091841;29;20285;-80
2022/09/18 16:42:43;;;;;;;1.17;0.30;;;;;;;12.33;52.54;100258.59;10093766;29;20569;-86
2022/09/18 16:48:05;;;;;;;1.40;0.60;;;;;;;12.26;52.71;100251.84;10105232;29;20262;-86
2022/09/18 16:53:28;;;;;;;2.63;0.37;;;;;;;11.35;53.43;100250.00;10075441;29;20347;-81
2022/09/18 16:58:50;;;;;;;4.10;1.50;;;;;;;12.38;50.63;100248.28;10095960;29;20608;-84
2022/09/18 17:04:13;;;;;;;2.03;0.30;;;;;;;12.19;52.28;100262.91;10108652;29;20218;-81
2022/09/18 17:09:35;;;;;;;2.40;0.40;;;;;;;12.50;51.23;100249.13;10089685;29;20234;-82
2022/09/18 17:14:57;;;;;;;2.93;0.80;;;;;;;12.02;52.61;100243.31;10100059;29;20260;-81
2022/09/18 17:20:19;;;;;;;1.57;0.50;;;;;;;11.45;54.04;100243.97;10081243;29;20237;-82
2022/09/18 17:25:42;;;;;;;2.20;0.30;;;;;;;11.52;53.06;100238.63;10099267;29;20663;-81
2022/09/18 17:31:08;;;;;;;0.77;0.30;;;;;;;11.27;52.40;100221.50;10088691;29;20253;-81
2022/09/18 17:36:31;;;;;;;1.17;0.43;;;;;;;11.95;51.05;100229.75;10081214;29;20249;-81
2022/09/18 17:41:54;;;;;;;1.73;0.40;;;;;;;11.86;51.47;100210.06;10082877;29;20282;-81
2022/09/18 17:47:19;;;;;;;1.13;0.30;;;;;;;12.15;50.77;100222.41;10091505;29;20233;-81
2022/09/18 17:52:41;;;;;;;3.90;0.47;;;;;;;11.84;51.10;100223.72;10094572;29;20340;-81
2022/09/18 17:58:03;;;;;;;3.10;0.40;;;;;;;11.58;51.47;100246.56;10094575;29;20250;-85
2022/09/18 18:03:26;;;;;;;2.53;0.90;;;;;;;12.06;51.74;100247.09;10086493;29;20237;-80
2022/09/18 18:08:49;;;;;;;0.97;0.70;;;;;;;12.20;50.92;100254.09;10092913;29;20273;-88
2022/09/18 18:14:12;;;;;;;1.03;0.50;;;;;;;12.58;49.69;100264.34;10088232;29;20249;-82
2022/09/18 18:19:34;;;;;;;3.87;0.60;;;;;;;12.65;49.78;100271.06;10077070;29;20266;-81
2022/09/18 18:24:56;;;;;;;3.00;0.63;;;;;;;12.06;50.75;100272.53;10071097;29;20262;-90
2022/09/18 18:30:19;;;;;;;2.50;0.60;;;;;;;11.49;51.84;100274.00;10076265;29;20241;-81
2022/09/18 18:35:42;;;;;;;2.20;0.50;;;;;;;12.64;49.01;100283.53;10067917;29;20250;-90
2022/09/18 18:41:06;;;;;;;1.37;0.40;;;;;;;12.05;50.56;100285.00;10094629;29;20623;-81
2022/09/18 18:46:30;;;;;;;1.20;0.60;;;;;;;11.58;50.89;100288.06;10084616;29;20238;-81
2022/09/18 18:51:52;;;;;;;1.23;0.60;;;;;;;11.65;50.82;100282.69;10107047;29;20631;-82
2022/09/18 18:57:14;;;;;;;3.03;1.23;;;;;;;10.29;54.23;100303.56;10084828;29;20285;-82
2022/09/18 19:02:36;;;;;;;3.00;1.10;;;;;;;11.51;50.03;100319.66;10094819;29;20640;-81
2022/09/18 19:07:58;;;;;;;7.90;3.43;;;;;;;11.37;51.45;100315.38;10077282;29;20241;-80
2022/09/18 19:13:23;;;;;;;3.20;1.43;;;;;;;11.61;51.29;100321.22;10087793;29;20305;-81
2022/09/18 19:18:59;;;;;;;2.77;1.07;;;;;;;12.12;49.61;100336.13;10098591;29;20317;-80
2022/09/18 19:24:21;;;;;;;3.40;1.23;;;;;;;10.63;52.78;100335.66;10082437;29;20319;-81
2022/09/18 19:29:43;;;;;;;5.50;2.33;;;;;;;11.16;52.94;100326.63;10086673;29;20229;-85
2022/09/18 19:35:06;;;;;;;2.97;1.70;;;;;;;11.15;52.46;100320.16;10093285;29;20281;-80
2022/09/18 19:40:30;;;;;;;7.53;2.83;;;;;;;11.32;52.56;100324.91;10071529;29;20833;-81
2022/09/18 19:45:53;;;;;;;4.53;1.67;;;;;;;11.18;52.10;100325.13;10070995;29;20298;-81
2022/09/18 19:51:15;;;;;;;4.83;1.67;;;;;;;11.01;52.03;100322.41;10076053;29;20636;-81
2022/09/18 19:56:37;;;;;;;3.20;1.77;;;;;;;11.86;50.03;100330.69;10071451;29;20229;-81
2022/09/18 20:01:59;;;;;;;7.87;2.47;;;;;;;11.77;50.74;100336.41;10086077;29;20262;-81
2022/09/18 20:07:21;;;;;;;3.87;2.20;;;;;;;10.81;54.32;100345.72;10078586;29;20603;-81
2022/09/18 20:12:46;;;;;;;5.77;2.47;;;;;;;10.76;54.62;100348.72;10097526;29;20246;-88
2022/09/18 20:18:09;;;;;;;4.70;1.97;;;;;;;11.14;54.20;100360.81;10101092;29;20237;-81
2022/09/18 20:23:31;;;;;;;4.73;2.30;;;;;;;11.07;54.54;100362.53;10096115;29;20339;-81
2022/09/18 20:28:54;;;;;;;4.17;2.27;;;;;;;10.67;55.22;100365.66;10105675;29;20253;-81
2022/09/18 20:34:21;;;;;;;3.80;2.23;;;;;;;11.08;54.45;100365.03;10084861;29;20270;-80
2022/09/18 20:39:43;;;;;;;3.63;2.07;;;;;;;11.41;54.04;100367.16;10084437;29;20237;-80
2022/09/18 20:45:06;;;;;;;4.80;2.03;;;;;;;11.06;54.33;100384.28;10092526;29;20225;-81
2022/09/18 20:50:28;;;;;;;6.53;1.43;;;;;;;12.30;51.50;100382.81;10088692;29;20270;-81
2022/09/18 20:55:50;;;;;;;4.23;1.63;;;;;;;11.93;52.87;100376.97;10077793;29;20258;-80
2022/09/18 21:01:16;;;;;;;5.77;1.70;;;;;;;11.22;55.33;100381.69;10098970;29;20238;-81
2022/09/18 21:06:40;;;;;;;7.30;1.90;;;;;;;11.46;54.65;100381.94;10093574;29;20305;-81
2022/09/18 21:12:02;;;;;;;3.83;1.80;;;;;;;11.97;52.94;100374.31;10096919;29;20241;-81
2022/09/18 21:17:26;;;;;;;4.23;2.00;;;;;;;11.14;55.72;100388.22;10088047;29;20627;-80
2022/09/18 21:28:29;;;;;;;5.67;2.50;;;;;;;11.63;54.85;100401.59;10093311;29;20241;-80
2022/09/18 21:33:52;;;;;;;5.80;2.27;;;;;;;11.19;56.25;100393.69;10085122;29;20253;-82
2022/09/18 21:39:14;;;;;;;7.17;2.10;;;;;;;11.74;54.58;100399.19;10101439;29;20311;-81
2022/09/18 21:44:37;;;;;;;7.47;2.43;;;;;;;11.45;55.63;100394.38;10098911;29;20285;-81
2022/09/18 21:50:00;;;;;;;5.93;2.70;;;;;;;11.98;54.29;100398.56;10086070;29;20616;-80
2022/09/18 21:55:22;;;;;;;7.10;2.70;;;;;;;11.02;56.83;100405.00;10082564;29;20269;-81
2022/09/18 22:00:44;;;;;;;3.80;2.03;;;;;;;11.75;54.69;100406.50;10091776;29;20229;-80
2022/09/18 22:06:06;;;;;;;7.70;2.57;;;;;;;11.59;54.82;100403.47;10076796;29;20277;-80
2022/09/18 22:11:30;;;;;;;11.00;2.67;;;;;;;11.77;54.36;100409.81;10078679;29;20302;-79
2022/09/18 22:16:52;;;;;;;6.53;2.63;;;;;;;11.60;55.13;100405.09;10079584;29;20282;-80
2022/09/18 22:22:14;;;;;;;6.10;2.53;;;;;;;11.67;54.30;100415.88;10084923;29;20400;-79
2022/09/18 22:27:36;;;;;;;7.20;2.33;;;;;;;11.70;54.72;100412.38;10102878;29;20630;-80
2022/09/18 22:32:59;;;;;;;10.53;1.90;;;;;;;11.97;53.42;100425.16;10129461;29;20245;-79
2022/09/18 22:38:21;;;;;;;6.30;1.27;;;;;;;12.28;52.09;100424.72;10120936;29;20236;-81
2022/09/18 22:43:43;;;;;;;8.20;1.37;;;;;;;11.23;55.25;100426.50;10129167;29;20245;-81
2022/09/18 22:49:07;;;;;;;6.23;1.23;;;;;;;12.65;51.11;100429.41;10130471;29;20535;-79
2022/09/18 22:54:29;;;;;;;6.13;1.20;;;;;;;11.77;54.51;100431.56;10128810;29;20299;-80
2022/09/18 22:59:51;;;;;;;9.33;1.67;;;;;;;12.14;52.97;100441.13;10116752;29;20224;-79
2022/09/18 23:05:14;;;;;;;7.80;1.83;;;;;;;12.10;53.17;100446.66;10116580;29;20230;-80
2022/09/18 23:10:36;;;;;;;10.27;1.33;;;;;;;11.86;53.22;100452.13;10129746;29;20225;-80
2022/09/18 23:16:08;;;;;;;8.23;1.20;;;;;;;11.95;52.74;100453.72;10112282;29;20312;-80
2022/09/18 23:21:32;;;;;;;6.67;1.30;;;;;;;12.15;52.13;100448.44;10128004;29;20292;-80
2022/09/18 23:26:56;;;;;;;7.90;1.33;;;;;;;12.16;52.41;100447.25;10083201;29;20368;-79
2022/09/18 23:32:18;;;;;;;11.47;1.60;;;;;;;12.03;53.25;100456.84;10092120;29;20864;-80
2022/09/18 23:37:40;;;;;;;6.47;1.40;;;;;;;12.68;51.09;100445.69;10092536;29;20423;-80
2022/09/18 23:43:02;;;;;;;5.63;1.40;;;;;;;11.62;54.22;100458.41;10092412;29;20228;-80
2022/09/18 23:48:25;;;;;;;8.87;1.93;;;;;;;11.71;53.66;100455.53;10080813;29;20281;-79
2022/09/18 23:53:47;;;;;;;8.27;1.60;;;;;;;11.26;54.40;100461.69;10068722;29;20810;-82
2022/09/18 23:59:11;;;;;;;7.20;1.83;;;;;;;11.56;54.47;100462.59;10081603;29;20561;-81
